Time;durP1;ratioP1;P1;durP2;ratioP2;P2;SDS_P1;SDS_P2;PMS_P1;PMS_P2;Temp;Humidity;BMP_temperature;BMP_pressure;BME280_temperature;BME280_humidity;BME280_pressure;Samples;Min_cycle;Max_cycle;Signal;HPM_P1;HPM_P2
2022/01/07 00:00:40;;;;;;;8.80;8.00;;;;;;;-4.60;100.00;98407.88;4993930;28;20459;-66
2022/01/07 00:03:08;;;;;;;9.83;8.43;;;;;;;-4.65;100.00;98403.72;4993982;28;20543;-66
2022/01/07 00:05:36;;;;;;;9.63;7.97;;;;;;;-4.65;100.00;98398.53;4993682;28;20444;-65
2022/01/07 00:08:05;;;;;;;10.77;8.80;;;;;;;-4.66;100.00;98386.50;4993339;28;20477;-64
2022/01/07 00:10:34;;;;;;;9.60;8.70;;;;;;;-4.65;100.00;98380.44;4993504;28;20452;-66
2022/01/07 00:13:01;;;;;;;10.87;8.50;;;;;;;-4.62;100.00;98383.81;4993111;28;20437;-65
2022/01/07 00:15:31;;;;;;;13.10;9.87;;;;;;;-4.57;100.00;98384.47;4993601;28;20436;-66
2022/01/07 00:17:59;;;;;;;10.87;8.40;;;;;;;-4.66;100.00;98378.75;4992950;28;20432;-66
2022/01/07 00:20:28;;;;;;;10.60;8.17;;;;;;;-4.75;100.00;98379.09;4993410;28;20444;-64
2022/01/07 00:22:56;;;;;;;10.27;8.47;;;;;;;-4.76;100.00;98381.75;4993363;28;20440;-65
2022/01/07 00:25:24;;;;;;;11.00;8.17;;;;;;;-4.70;100.00;98377.19;4993421;28;20449;-65
2022/01/07 00:27:52;;;;;;;10.20;7.53;;;;;;;-4.75;100.00;98379.09;4993057;28;20480;-64
2022/01/07 00:30:21;;;;;;;8.63;7.73;;;;;;;-4.78;100.00;98366.28;4993080;28;20448;-66
2022/01/07 00:32:52;;;;;;;8.63;7.37;;;;;;;-4.83;100.00;98375.94;4993250;28;20468;-66
2022/01/07 00:35:20;;;;;;;11.80;8.70;;;;;;;-4.88;100.00;98373.56;4993210;28;20444;-65
2022/01/07 00:37:49;;;;;;;10.43;8.80;;;;;;;-4.90;100.00;98372.78;4993116;28;20472;-66
2022/01/07 00:40:19;;;;;;;15.57;9.23;;;;;;;-4.91;100.00;98363.34;4993241;28;20436;-67
2022/01/07 00:42:49;;;;;;;15.23;10.37;;;;;;;-4.92;100.00;98364.25;4992969;28;20548;-65
2022/01/07 00:45:17;;;;;;;13.80;10.40;;;;;;;-4.99;100.00;98361.03;4993061;28;20463;-66
2022/01/07 00:47:46;;;;;;;15.30;10.70;;;;;;;-5.03;100.00;98362.03;4992530;28;20460;-65
2022/01/07 00:50:16;;;;;;;17.67;12.00;;;;;;;-4.97;100.00;98358.38;4993042;28;20444;-67
2022/01/07 00:52:45;;;;;;;16.03;10.57;;;;;;;-4.99;100.00;98361.03;4992735;28;20456;-66
2022/01/07 00:55:14;;;;;;;16.10;10.90;;;;;;;-5.00;100.00;98361.94;4993382;28;20536;-65
2022/01/07 00:57:42;;;;;;;10.33;9.23;;;;;;;-4.87;100.00;98358.88;4992458;28;20968;-64
2022/01/07 01:00:13;;;;;;;11.60;9.63;;;;;;;-4.88;100.00;98358.03;4992567;28;20433;-64
2022/01/07 01:02:41;;;;;;;12.23;9.17;;;;;;;-4.88;100.00;98358.03;4992771;28;20465;-65
2022/01/07 01:05:11;;;;;;;12.40;9.50;;;;;;;-4.91;100.00;98354.72;4992837;28;20472;-66
2022/01/07 01:07:41;;;;;;;10.53;8.90;;;;;;;-4.86;100.00;98347.63;4992361;28;20447;-65
2022/01/07 01:10:10;;;;;;;11.23;9.40;;;;;;;-4.95;100.00;98354.84;4992652;28;20479;-65
2022/01/07 01:12:40;;;;;;;11.50;9.43;;;;;;;-5.02;100.00;98353.38;4992366;28;20832;-64
2022/01/07 01:15:10;;;;;;;11.33;9.40;;;;;;;-5.03;100.00;98358.59;4992894;28;20562;-67
2022/01/07 01:17:38;;;;;;;13.13;8.10;;;;;;;-4.92;100.00;98358.22;4992493;28;20447;-67
2022/01/07 01:20:08;;;;;;;12.47;9.90;;;;;;;-4.89;100.00;98364.13;4992488;28;20441;-64
2022/01/07 01:22:36;;;;;;;9.47;8.53;;;;;;;-4.90;100.00;98370.19;4992206;28;20533;-64
2022/01/07 01:25:07;;;;;;;11.03;8.73;;;;;;;-4.96;100.00;98363.50;4992101;28;20445;-65
2022/01/07 01:27:35;;;;;;;10.37;7.80;;;;;;;-5.00;100.00;98376.59;4992339;28;20869;-64
2022/01/07 01:30:05;;;;;;;12.20;8.93;;;;;;;-5.04;100.00;98364.69;4991711;28;20484;-67
2022/01/07 01:32:33;;;;;;;9.33;8.40;;;;;;;-5.05;100.00;98361.25;4991951;28;20460;-65
2022/01/07 01:35:01;;;;;;;9.97;8.03;;;;;;;-5.11;100.00;98358.91;4991900;28;20433;-65
2022/01/07 01:37:29;;;;;;;10.53;9.50;;;;;;;-5.06;100.00;98357.00;4992070;28;20461;-64
2022/01/07 01:39:57;;;;;;;10.37;9.10;;;;;;;-5.06;100.00;98351.81;4992278;28;20437;-64
2022/01/07 01:42:27;;;;;;;11.17;9.87;;;;;;;-4.98;100.00;98351.50;4992274;28;20461;-64
2022/01/07 01:44:55;;;;;;;11.33;9.83;;;;;;;-5.04;100.00;98352.59;4992105;28;20450;-65
2022/01/07 01:47:23;;;;;;;12.57;9.47;;;;;;;-4.99;100.00;98345.53;4991786;28;20487;-65
2022/01/07 01:49:50;;;;;;;15.07;9.37;;;;;;;-5.01;100.00;98341.28;4991691;28;20507;-67
2022/01/07 01:52:18;;;;;;;10.47;7.83;;;;;;;-5.06;100.00;98338.03;4991700;28;20989;-65
2022/01/07 01:54:47;;;;;;;7.90;6.37;;;;;;;-5.02;100.00;98334.44;4992166;28;20445;-65
2022/01/07 01:57:15;;;;;;;10.97;7.87;;;;;;;-5.02;100.00;98327.53;4991777;28;20761;-62
2022/01/07 01:59:44;;;;;;;12.80;8.43;;;;;;;-4.97;100.00;98328.19;4991991;28;20476;-65
2022/01/07 02:02:12;;;;;;;8.30;6.60;;;;;;;-5.00;100.00;98325.75;4991765;28;20504;-64
2022/01/07 02:04:41;;;;;;;9.87;8.87;;;;;;;-4.97;100.00;98317.00;4992134;28;20444;-64
2022/01/07 02:07:09;;;;;;;11.27;7.73;;;;;;;-4.94;100.00;98314.31;4991937;28;20437;-65
2022/01/07 02:09:38;;;;;;;9.30;7.83;;;;;;;-4.85;100.00;98313.13;4991631;28;20496;-65
2022/01/07 02:12:07;;;;;;;10.27;8.57;;;;;;;-4.84;100.00;98314.81;4991711;28;20464;-66
2022/01/07 02:14:36;;;;;;;13.53;7.83;;;;;;;-4.85;100.00;98316.56;4991742;28;20440;-64
2022/01/07 02:17:08;;;;;;;10.03;7.53;;;;;;;-4.86;100.00;98309.69;4991478;28;20433;-65
2022/01/07 02:19:38;;;;;;;8.30;7.50;;;;;;;-4.90;100.00;98308.13;4991899;28;20444;-65
2022/01/07 02:22:07;;;;;;;12.60;7.23;;;;;;;-4.99;100.00;98304.16;4991744;28;20465;-64
2022/01/07 02:24:37;;;;;;;10.20;7.43;;;;;;;-5.01;100.00;98311.13;4991675;28;20455;-64
2022/01/07 02:27:07;;;;;;;13.17;7.93;;;;;;;-4.99;100.00;98309.31;4991405;28;20948;-65
2022/01/07 02:29:36;;;;;;;12.00;7.13;;;;;;;-4.98;100.00;98302.41;4991332;28;20519;-64
2022/01/07 02:32:05;;;;;;;10.17;7.97;;;;;;;-4.94;100.00;98306.53;4991409;28;21000;-64
2022/01/07 02:34:33;;;;;;;10.97;7.23;;;;;;;-4.94;100.00;98304.81;4991643;28;20448;-66
2022/01/07 02:37:03;;;;;;;9.93;8.03;;;;;;;-4.94;100.00;98296.22;4992794;28;20449;-65
2022/01/07 02:39:31;;;;;;;10.23;7.53;;;;;;;-4.94;100.00;98298.78;4995183;28;20437;-65
2022/01/07 02:41:59;;;;;;;10.00;7.27;;;;;;;-4.98;100.00;98297.22;4995209;28;20472;-66
2022/01/07 02:44:27;;;;;;;8.73;7.53;;;;;;;-5.00;100.00;98292.13;4995541;28;20445;-64
2022/01/07 02:46:55;;;;;;;12.37;7.20;;;;;;;-4.95;100.00;98297.09;4995085;28;20941;-65
2022/01/07 02:49:23;;;;;;;10.77;8.77;;;;;;;-5.02;100.00;98293.09;4994872;28;20480;-67
2022/01/07 02:51:51;;;;;;;8.17;7.47;;;;;;;-5.03;100.00;98292.25;4994872;28;20468;-65
2022/01/07 02:54:20;;;;;;;8.33;7.10;;;;;;;-5.07;100.00;98290.69;4995010;28;20452;-64
2022/01/07 02:56:48;;;;;;;8.90;6.77;;;;;;;-5.02;100.00;98278.44;4995123;28;20491;-64
2022/01/07 02:59:16;;;;;;;10.80;7.43;;;;;;;-4.99;100.00;98291.22;4994938;28;20861;-65
2022/01/07 03:01:44;;;;;;;11.30;8.00;;;;;;;-4.94;100.00;98297.06;4994870;28;20460;-66
2022/01/07 03:04:12;;;;;;;8.10;7.30;;;;;;;-5.04;100.00;98289.72;4994764;28;20445;-64
2022/01/07 03:06:40;;;;;;;7.83;7.00;;;;;;;-5.01;100.00;98285.28;4994909;28;20440;-64
2022/01/07 03:09:08;;;;;;;9.07;7.57;;;;;;;-4.96;100.00;98292.84;4994738;28;20511;-64
2022/01/07 03:11:37;;;;;;;10.10;7.57;;;;;;;-4.98;100.00;98292.91;4994786;28;20466;-65
2022/01/07 03:14:05;;;;;;;10.77;7.07;;;;;;;-5.03;100.00;98284.50;4994784;28;20451;-65
2022/01/07 03:16:33;;;;;;;8.57;7.23;;;;;;;-4.95;100.00;98286.75;4994705;28;20452;-66
2022/01/07 03:19:01;;;;;;;7.27;6.57;;;;;;;-5.04;100.00;98284.53;4994273;28;20445;-65
2022/01/07 03:21:29;;;;;;;9.07;7.23;;;;;;;-5.07;100.00;98282.09;4994604;28;20456;-65
2022/01/07 03:23:57;;;;;;;8.83;6.73;;;;;;;-5.10;100.00;98275.31;4994603;28;20507;-64
2022/01/07 03:26:25;;;;;;;9.13;6.87;;;;;;;-5.02;100.00;98280.16;4994798;28;20443;-65
2022/01/07 03:28:54;;;;;;;7.53;6.80;;;;;;;-5.02;100.00;98278.44;4993985;28;20934;-65
2022/01/07 03:31:22;;;;;;;9.17;7.07;;;;;;;-5.00;100.00;98278.34;4994523;28;20480;-66
2022/01/07 03:33:50;;;;;;;9.27;7.17;;;;;;;-5.09;100.00;98279.56;4994055;28;20976;-65
2022/01/07 03:36:18;;;;;;;7.37;6.60;;;;;;;-5.09;100.00;98266.66;4994159;28;20441;-64
2022/01/07 03:38:46;;;;;;;10.10;7.63;;;;;;;-5.02;100.00;98265.50;4994667;28;20449;-64
2022/01/07 03:41:14;;;;;;;8.83;7.33;;;;;;;-5.02;100.00;98262.06;4994543;28;20483;-64
2022/01/07 03:43:42;;;;;;;10.87;7.07;;;;;;;-4.98;100.00;98259.31;4993777;28;20448;-65
2022/01/07 03:46:12;;;;;;;7.97;7.10;;;;;;;-4.88;100.00;98254.63;4994087;28;20440;-65
2022/01/07 03:48:40;;;;;;;7.03;6.33;;;;;;;-4.93;100.00;98246.19;4993583;28;20440;-66
2022/01/07 03:51:08;;;;;;;8.67;6.43;;;;;;;-4.85;100.00;98243.31;4993785;28;20496;-66
2022/01/07 03:53:36;;;;;;;10.83;7.00;;;;;;;-4.91;100.00;98243.56;4993703;28;20972;-65
2022/01/07 03:56:04;;;;;;;6.87;6.13;;;;;;;-4.83;100.00;98244.94;4993615;28;20460;-66
2022/01/07 03:58:32;;;;;;;8.07;7.27;;;;;;;-4.82;100.00;98250.94;4993585;28;21020;-65
2022/01/07 04:01:00;;;;;;;7.83;6.17;;;;;;;-4.83;100.00;98251.84;4993695;28;20460;-64
2022/01/07 04:03:30;;;;;;;7.20;6.23;;;;;;;-4.80;100.00;98247.41;4993531;28;20448;-65
2022/01/07 04:05:58;;;;;;;8.73;7.37;;;;;;;-4.76;100.00;98242.09;4994182;28;20455;-66
2022/01/07 04:08:26;;;;;;;7.67;6.90;;;;;;;-4.86;100.00;98237.31;4993490;28;20448;-65
2022/01/07 04:10:54;;;;;;;11.50;5.77;;;;;;;-4.83;100.00;98244.09;4993350;28;20488;-65
2022/01/07 04:13:22;;;;;;;6.73;6.17;;;;;;;-4.72;100.00;98247.09;4993500;28;20471;-67
2022/01/07 04:15:50;;;;;;;7.00;6.30;;;;;;;-4.71;100.00;98240.16;4993443;28;20833;-67
2022/01/07 04:18:18;;;;;;;9.47;7.37;;;;;;;-4.68;100.00;98234.88;4993339;28;21094;-66
2022/01/07 04:20:47;;;;;;;12.33;6.50;;;;;;;-4.75;100.00;98238.63;4993294;28;20444;-65
2022/01/07 04:23:15;;;;;;;6.90;5.83;;;;;;;-4.82;100.00;98240.59;4993555;28;21249;-65
2022/01/07 04:25:43;;;;;;;7.67;6.23;;;;;;;-4.83;100.00;98244.94;4993303;28;20443;-65
2022/01/07 04:28:11;;;;;;;7.07;6.37;;;;;;;-4.90;100.00;98248.69;4992963;28;20447;-66
2022/01/07 04:30:41;;;;;;;7.53;6.20;;;;;;;-4.99;100.00;98246.44;4992634;28;20559;-66
2022/01/07 04:33:12;;;;;;;7.17;6.47;;;;;;;-4.99;100.00;98252.47;4992986;28;20436;-65
2022/01/07 04:35:41;;;;;;;9.77;6.27;;;;;;;-4.99;100.00;98257.63;4994476;28;20448;-65
2022/01/07 04:38:10;;;;;;;7.13;5.90;;;;;;;-5.05;100.00;98247.53;4992893;28;20437;-66
2022/01/07 04:40:38;;;;;;;9.67;5.57;;;;;;;-5.10;100.00;98252.88;4992852;28;20577;-65
2022/01/07 04:43:07;;;;;;;6.87;6.10;;;;;;;-5.10;100.00;98258.03;4992946;28;20441;-65
2022/01/07 04:45:36;;;;;;;8.80;6.60;;;;;;;-5.14;100.00;98259.06;4992624;28;20445;-65
2022/01/07 04:48:04;;;;;;;8.53;6.77;;;;;;;-5.18;100.00;98259.22;4992510;28;20448;-65
2022/01/07 04:50:32;;;;;;;6.33;5.83;;;;;;;-5.17;100.00;98259.19;4992567;28;20484;-65
2022/01/07 04:53:01;;;;;;;9.57;6.93;;;;;;;-5.17;100.00;98251.44;4992832;28;20451;-65
2022/01/07 04:55:36;;;;;;;6.93;6.23;;;;;;;-5.15;100.00;98261.69;4992491;28;20491;-65
2022/01/07 04:58:05;;;;;;;6.90;6.20;;;;;;;-5.11;100.00;98258.13;4992366;28;20901;-65
2022/01/07 05:00:34;;;;;;;8.07;6.13;;;;;;;-5.01;100.00;98258.56;4992119;28;20440;-66
2022/01/07 05:03:02;;;;;;;7.33;6.23;;;;;;;-4.97;100.00;98258.41;4992556;28;20470;-65
2022/01/07 05:05:30;;;;;;;8.20;6.67;;;;;;;-4.85;100.00;98258.81;4992487;28;20870;-66
2022/01/07 05:07:57;;;;;;;7.73;6.23;;;;;;;-4.93;100.00;98261.69;4992236;28;20949;-66
2022/01/07 05:10:26;;;;;;;9.30;5.87;;;;;;;-4.95;100.00;98259.19;4992311;28;20448;-65
2022/01/07 05:12:56;;;;;;;10.43;6.27;;;;;;;-4.94;100.00;98257.44;4992438;28;20499;-65
2022/01/07 05:15:24;;;;;;;9.67;7.20;;;;;;;-4.93;100.00;98248.78;4992444;28;20436;-65
2022/01/07 05:17:52;;;;;;;6.57;5.97;;;;;;;-4.88;100.00;98243.44;4992153;28;20443;-65
2022/01/07 05:20:21;;;;;;;7.03;6.37;;;;;;;-4.88;100.00;98248.59;4992285;28;21128;-66
2022/01/07 05:22:49;;;;;;;9.23;6.37;;;;;;;-4.81;100.00;98244.88;4992131;28;20514;-65
2022/01/07 05:25:17;;;;;;;7.53;6.17;;;;;;;-4.81;100.00;98242.28;4992039;28;20445;-65
2022/01/07 05:27:45;;;;;;;7.17;6.40;;;;;;;-4.78;100.00;98243.91;4991925;28;20916;-65
2022/01/07 05:30:15;;;;;;;7.03;6.33;;;;;;;-4.75;100.00;98244.59;4991865;28;20441;-66
2022/01/07 05:32:43;;;;;;;11.10;6.30;;;;;;;-4.65;100.00;98240.78;4992125;28;20484;-65
2022/01/07 05:35:11;;;;;;;9.80;7.57;;;;;;;-4.62;100.00;98238.97;4991894;28;20444;-66
2022/01/07 05:37:39;;;;;;;8.13;6.93;;;;;;;-4.72;100.00;98239.34;4991968;28;20969;-65
2022/01/07 05:40:09;;;;;;;7.13;6.43;;;;;;;-4.72;100.00;98239.34;4992084;28;20929;-66
2022/01/07 05:42:37;;;;;;;8.77;6.57;;;;;;;-4.71;100.00;98245.34;4991881;28;20808;-66
2022/01/07 05:45:05;;;;;;;7.93;7.13;;;;;;;-4.75;100.00;98244.59;4991811;28;20779;-66
2022/01/07 05:47:35;;;;;;;7.47;6.53;;;;;;;-4.72;100.00;98243.66;4991650;28;20445;-65
2022/01/07 05:50:03;;;;;;;7.17;6.27;;;;;;;-4.63;100.00;98229.53;4992020;28;20490;-67
2022/01/07 05:52:31;;;;;;;7.83;7.10;;;;;;;-4.71;100.00;98230.69;4991597;28;20497;-67
2022/01/07 05:54:59;;;;;;;15.33;8.20;;;;;;;-4.60;100.00;98231.97;4991628;28;20973;-66
2022/01/07 05:57:27;;;;;;;10.33;7.30;;;;;;;-4.49;100.00;98234.13;4991662;28;20861;-66
2022/01/07 05:59:55;;;;;;;11.17;8.00;;;;;;;-4.49;100.00;98229.78;4991687;28;20441;-65
2022/01/07 06:02:23;;;;;;;10.77;7.77;;;;;;;-4.37;100.00;98238.78;4991599;28;20468;-65
2022/01/07 06:04:53;;;;;;;8.93;8.03;;;;;;;-4.37;100.00;98234.44;4991826;28;20448;-66
2022/01/07 06:07:22;;;;;;;8.07;7.27;;;;;;;-4.29;100.00;98235.88;4991967;28;20860;-64
2022/01/07 06:09:50;;;;;;;8.43;7.13;;;;;;;-4.26;100.00;98235.75;4991586;28;20809;-65
2022/01/07 06:12:18;;;;;;;12.53;8.23;;;;;;;-4.14;100.00;98230.03;4993940;28;20491;-66
2022/01/07 06:14:46;;;;;;;11.33;9.17;;;;;;;-4.08;100.00;98239.31;4995373;28;20433;-65
2022/01/07 06:17:13;;;;;;;11.00;9.53;;;;;;;-3.99;100.00;98238.91;4995376;28;20932;-64
2022/01/07 06:19:41;;;;;;;10.57;8.47;;;;;;;-3.96;100.00;98238.75;4995523;28;20444;-67
2022/01/07 06:22:12;;;;;;;10.60;8.17;;;;;;;-3.85;100.00;98240.88;4995561;28;20825;-65
2022/01/07 06:24:40;;;;;;;12.43;8.33;;;;;;;-3.92;100.00;98240.31;4995518;28;20464;-66
2022/01/07 06:27:08;;;;;;;12.03;8.93;;;;;;;-3.83;100.00;98233.03;4995040;28;20490;-67
2022/01/07 06:29:37;;;;;;;12.27;9.73;;;;;;;-3.83;100.00;98236.47;4995252;28;20440;-66
2022/01/07 06:32:07;;;;;;;8.53;7.53;;;;;;;-3.85;100.00;98229.66;4995213;28;20484;-68
2022/01/07 06:34:35;;;;;;;11.23;8.20;;;;;;;-3.75;100.00;98223.19;4995245;28;20495;-65
2022/01/07 06:37:04;;;;;;;13.07;9.07;;;;;;;-3.75;100.00;98227.53;4994906;28;20464;-65
2022/01/07 06:39:34;;;;;;;12.50;9.80;;;;;;;-3.66;100.00;98229.69;4995234;28;20447;-66
2022/01/07 06:42:04;;;;;;;12.17;8.43;;;;;;;-3.72;100.00;98227.38;4995186;28;20478;-65
2022/01/07 06:44:31;;;;;;;12.77;9.37;;;;;;;-3.70;100.00;98225.56;4994989;28;20448;-65
2022/01/07 06:46:59;;;;;;;9.97;8.73;;;;;;;-3.68;100.00;98218.56;4994777;28;20972;-66
2022/01/07 06:49:27;;;;;;;12.53;9.33;;;;;;;-3.63;100.00;98227.81;4994962;28;20440;-66
2022/01/07 06:51:55;;;;;;;10.47;8.77;;;;;;;-3.66;100.00;98222.78;4994594;28;20539;-67
2022/01/07 06:54:23;;;;;;;11.10;9.90;;;;;;;-3.59;100.00;98213.00;4995095;28;20437;-66
2022/01/07 06:56:52;;;;;;;15.63;10.57;;;;;;;-3.57;100.00;98211.16;4994754;28;20448;-66
2022/01/07 06:59:21;;;;;;;14.77;9.93;;;;;;;-3.55;100.00;98205.91;4995036;28;20444;-66
2022/01/07 07:01:49;;;;;;;14.20;9.47;;;;;;;-3.57;100.00;98215.50;4995016;28;20464;-66
2022/01/07 07:04:17;;;;;;;12.27;9.47;;;;;;;-3.52;100.00;98221.31;4994677;28;20468;-66
2022/01/07 07:06:46;;;;;;;12.17;9.20;;;;;;;-3.50;100.00;98229.84;4994579;28;20999;-66
2022/01/07 07:09:15;;;;;;;12.90;9.40;;;;;;;-3.49;100.00;98229.78;4994812;28;20436;-66
2022/01/07 07:11:43;;;;;;;14.50;10.00;;;;;;;-3.52;100.00;98227.34;4994259;28;20476;-66
2022/01/07 07:14:13;;;;;;;12.73;10.07;;;;;;;-3.38;100.00;98231.91;4994669;28;20941;-66
2022/01/07 07:16:43;;;;;;;13.50;10.07;;;;;;;-3.40;100.00;98231.13;4994655;28;20822;-67
2022/01/07 07:19:11;;;;;;;13.63;10.13;;;;;;;-3.35;100.00;98234.34;4994493;28;20447;-65
2022/01/07 07:21:39;;;;;;;13.00;10.13;;;;;;;-3.30;100.00;98236.72;4994384;28;20457;-66
2022/01/07 07:24:07;;;;;;;16.03;9.70;;;;;;;-3.21;100.00;98238.03;4994156;28;20471;-65
2022/01/07 07:26:36;;;;;;;18.20;10.47;;;;;;;-3.18;100.00;98240.47;4994144;28;20949;-65
2022/01/07 07:29:03;;;;;;;14.20;10.33;;;;;;;-3.23;100.00;98229.50;4993634;28;20864;-65
2022/01/07 07:31:38;;;;;;;12.07;9.90;;;;;;;-3.22;100.00;98232.03;4994151;28;20605;-65
2022/01/07 07:34:31;;;;;;;15.97;10.43;;;;;;;-3.18;100.00;98237.06;4994413;28;20519;-65
2022/01/07 07:36:59;;;;;;;15.93;11.03;;;;;;;-2.97;100.00;98230.03;4993859;28;20468;-65
2022/01/07 07:39:27;;;;;;;15.47;9.57;;;;;;;-3.06;100.00;98224.34;4993903;28;20451;-66
2022/01/07 07:41:55;;;;;;;12.77;9.43;;;;;;;-2.99;100.00;98227.50;4993819;28;20773;-65
2022/01/07 07:44:25;;;;;;;14.30;10.23;;;;;;;-3.00;100.00;98228.41;4994217;28;20710;-65
2022/01/07 07:46:55;;;;;;;17.30;10.97;;;;;;;-3.02;100.00;98221.63;4993605;28;20961;-65
2022/01/07 07:49:23;;;;;;;15.47;11.53;;;;;;;-3.05;100.00;98223.44;4993953;28;20793;-65
2022/01/07 07:51:51;;;;;;;12.03;10.23;;;;;;;-2.98;100.00;98225.75;4993446;28;20481;-65
2022/01/07 07:54:20;;;;;;;19.37;9.70;;;;;;;-2.81;100.00;98219.75;4993843;28;20437;-65
2022/01/07 07:56:48;;;;;;;13.07;9.83;;;;;;;-2.87;100.00;98207.06;4993575;28;20444;-66
2022/01/07 07:59:16;;;;;;;13.13;9.57;;;;;;;-2.88;100.00;98203.66;4993813;28;20429;-67
2022/01/07 08:01:44;;;;;;;11.80;8.87;;;;;;;-2.95;100.00;98205.69;4993652;28;20476;-65
2022/01/07 08:04:15;;;;;;;10.97;9.63;;;;;;;-2.79;100.00;98204.97;4993550;28;20686;-66
2022/01/07 08:06:43;;;;;;;15.20;11.17;;;;;;;-2.77;100.00;98197.94;4993410;28;20206;-66
2022/01/07 08:09:12;;;;;;;16.53;11.13;;;;;;;-2.62;100.00;98198.94;4993711;28;20594;-67
2022/01/07 08:11:50;;;;;;;13.27;11.00;;;;;;;-2.66;100.00;98192.19;4993296;28;20465;-66
2022/01/07 08:17:04;;;;;;;10.70;9.13;;;;;;;-2.58;100.00;98197.88;4993192;28;20669;-65
2022/01/07 08:19:34;;;;;;;12.53;9.63;;;;;;;-2.39;100.00;98195.19;4993660;28;20209;-66
2022/01/07 08:22:03;;;;;;;14.67;10.40;;;;;;;-2.38;100.00;98183.03;4993296;28;20493;-66
2022/01/07 08:24:31;;;;;;;15.70;10.83;;;;;;;-2.28;100.00;98184.25;4993348;28;20449;-66
2022/01/07 08:27:01;;;;;;;13.83;9.47;;;;;;;-2.28;100.00;98186.00;4992905;28;20452;-66
2022/01/07 08:29:50;;;;;;;16.23;10.13;;;;;;;-2.34;100.00;98185.41;4992697;28;20441;-65
2022/01/07 08:35:07;;;;;;;11.70;9.90;;;;;;;-2.17;100.00;98172.50;4992163;28;20205;-65
2022/01/07 08:37:35;;;;;;;13.03;10.07;;;;;;;-2.10;100.00;98176.44;4992850;28;20213;-65
2022/01/07 08:40:04;;;;;;;11.80;10.50;;;;;;;-2.01;100.00;98177.72;4993028;28;20225;-66
2022/01/07 08:42:33;;;;;;;11.13;9.80;;;;;;;-2.01;100.00;98173.34;4993161;28;20599;-66
2022/01/07 08:45:01;;;;;;;13.37;10.70;;;;;;;-1.91;100.00;98173.72;4993270;28;20447;-65
2022/01/07 08:47:29;;;;;;;13.07;10.53;;;;;;;-1.91;100.00;98163.31;4992992;28;20214;-65
2022/01/07 08:49:56;;;;;;;13.77;10.17;;;;;;;-1.83;100.00;98160.31;4993692;28;20217;-65
2022/01/07 08:52:26;;;;;;;12.83;9.70;;;;;;;-1.77;100.00;98160.00;4992982;28;20268;-64
2022/01/07 08:54:54;;;;;;;13.20;10.03;;;;;;;-1.66;100.00;98164.63;4992834;28;20279;-65
2022/01/07 08:57:22;;;;;;;12.27;10.33;;;;;;;-1.73;100.00;98163.25;4992553;28;20217;-65
2022/01/07 08:59:51;;;;;;;14.77;10.63;;;;;;;-1.73;100.00;98163.25;4992627;28;20609;-64
2022/01/07 09:02:20;;;;;;;12.17;9.67;;;;;;;-1.66;100.00;98165.44;4992281;28;20226;-64
2022/01/07 09:04:48;;;;;;;12.83;11.30;;;;;;;-1.61;100.00;98158.22;4992566;28;20205;-64
2022/01/07 09:07:16;;;;;;;12.23;9.83;;;;;;;-1.56;100.00;98155.41;4992278;28;20301;-64
2022/01/07 09:09:45;;;;;;;12.90;10.20;;;;;;;-1.63;100.00;98164.47;4992337;28;20223;-65
2022/01/07 09:12:14;;;;;;;12.83;9.97;;;;;;;-1.58;100.00;98161.59;4992346;28;20225;-64
2022/01/07 09:14:42;;;;;;;12.53;9.93;;;;;;;-1.54;100.00;98152.69;4992229;28;20229;-65
2022/01/07 09:17:09;;;;;;;11.97;10.03;;;;;;;-1.52;100.00;98156.91;4992305;28;20498;-64
2022/01/07 09:19:37;;;;;;;13.17;9.57;;;;;;;-1.38;100.00;98153.56;4992214;28;20507;-64
2022/01/07 09:22:06;;;;;;;11.60;10.40;;;;;;;-1.31;100.00;98152.28;4992241;28;20310;-64
2022/01/07 09:24:34;;;;;;;17.07;9.43;;;;;;;-1.22;100.00;98157.88;4992284;28;20233;-64
2022/01/07 09:27:03;;;;;;;14.57;10.77;;;;;;;-1.26;100.00;98154.63;4991896;28;20216;-65
2022/01/07 09:29:31;;;;;;;15.03;9.80;;;;;;;-1.22;100.00;98152.69;4991716;28;20228;-65
2022/01/07 09:31:59;;;;;;;13.43;10.03;;;;;;;-1.22;100.00;98157.88;4992175;28;20228;-64
2022/01/07 09:34:27;;;;;;;13.20;9.57;;;;;;;-1.09;100.00;98158.91;4992098;28;20650;-65
2022/01/07 09:37:02;;;;;;;13.43;9.37;;;;;;;-0.98;100.00;98155.66;4991933;28;20303;-64
2022/01/07 09:39:30;;;;;;;12.97;9.70;;;;;;;-1.07;100.00;98153.59;4991861;28;20213;-64
2022/01/07 09:41:58;;;;;;;12.77;9.67;;;;;;;-1.02;100.00;98154.16;4991915;28;20226;-65
2022/01/07 09:44:28;;;;;;;12.40;9.50;;;;;;;-0.95;100.00;98150.28;4992103;28;20618;-64
2022/01/07 09:46:56;;;;;;;12.20;9.63;;;;;;;-0.92;100.00;98152.75;4991495;28;20209;-64
2022/01/07 09:49:26;;;;;;;12.03;9.37;;;;;;;-0.92;100.00;98142.34;4991846;28;20217;-64
2022/01/07 09:51:54;;;;;;;11.60;9.30;;;;;;;-0.94;100.00;98140.72;4991532;28;20644;-65
2022/01/07 09:54:22;;;;;;;13.07;8.40;;;;;;;-0.81;100.00;98133.06;4991966;28;20232;-65
2022/01/07 09:56:51;;;;;;;11.70;9.23;;;;;;;-0.81;100.00;98135.66;4991633;28;20216;-64
2022/01/07 09:59:19;;;;;;;12.33;9.77;;;;;;;-0.77;100.00;98137.16;4991784;28;20221;-64
2022/01/07 10:02:01;;;;;;;11.23;10.00;;;;;;;-0.62;100.00;98123.22;4992428;28;20226;-64
2022/01/07 10:04:33;;;;;;;9.97;8.90;;;;;;;-0.68;100.00;98115.78;4991778;28;20296;-64
2022/01/07 10:07:12;;;;;;;12.97;8.50;;;;;;;-0.78;100.00;98109.47;4991798;28;20256;-64
2022/01/07 10:09:41;;;;;;;12.80;9.00;;;;;;;-0.76;100.00;98113.66;4992084;28;20205;-64
2022/01/07 10:12:09;;;;;;;12.70;9.30;;;;;;;-0.75;100.00;98107.53;4991548;28;20602;-65
2022/01/07 10:14:37;;;;;;;12.17;9.30;;;;;;;-0.73;100.00;98103.06;4991538;28;20248;-64
2022/01/07 10:17:06;;;;;;;10.80;8.60;;;;;;;-0.62;100.00;98101.59;4991616;28;20685;-64
2022/01/07 10:19:36;;;;;;;11.97;9.53;;;;;;;-0.55;100.00;98102.91;4991618;28;20206;-64
2022/01/07 10:22:07;;;;;;;11.67;8.73;;;;;;;-0.70;100.00;98091.63;4991638;28;20256;-64
2022/01/07 10:24:54;;;;;;;11.70;8.27;;;;;;;-0.54;100.00;98095.94;4991589;28;20205;-64
2022/01/07 10:27:24;;;;;;;9.50;8.37;;;;;;;-0.56;100.00;98093.41;4991174;28;20221;-65
2022/01/07 10:29:52;;;;;;;9.43;8.30;;;;;;;-0.47;100.00;98089.44;4991238;28;20218;-64
2022/01/07 10:32:32;;;;;;;12.93;8.97;;;;;;;-0.44;100.00;98081.44;4991615;28;20618;-65
2022/01/07 10:35:06;;;;;;;10.23;8.90;;;;;;;-0.38;100.00;98075.84;4991441;28;20733;-64
2022/01/07 10:37:34;;;;;;;13.47;9.63;;;;;;;-0.40;100.00;98075.09;4991239;28;20209;-64
2022/01/07 10:40:02;;;;;;;10.23;8.47;;;;;;;-0.33;100.00;98073.78;4991468;28;20629;-65
2022/01/07 10:42:30;;;;;;;11.77;7.87;;;;;;;-0.24;100.00;98076.75;4991518;28;20236;-64
2022/01/07 10:44:59;;;;;;;10.93;9.07;;;;;;;-0.10;100.00;98068.09;4991524;28;20217;-64
2022/01/07 10:47:28;;;;;;;10.80;8.10;;;;;;;-0.12;100.00;98073.44;4991207;28;20209;-64
2022/01/07 10:50:14;;;;;;;9.07;8.17;;;;;;;0.00;100.00;98071.84;4991188;28;20577;-65
2022/01/07 10:52:42;;;;;;;11.33;8.20;;;;;;;-0.02;100.00;98066.72;4991585;28;20284;-63
2022/01/07 10:55:12;;;;;;;9.57;8.50;;;;;;;0.14;100.00;98065.72;4991186;28;20768;-65
2022/01/07 10:57:41;;;;;;;8.53;7.63;;;;;;;0.31;100.00;98054.25;4994122;28;20225;-66
2022/01/07 11:00:11;;;;;;;8.33;7.27;;;;;;;0.04;100.00;98052.47;4996311;28;20210;-63
2022/01/07 11:02:40;;;;;;;10.70;8.27;;;;;;;0.01;100.00;98054.41;4995190;28;20225;-64
2022/01/07 11:05:09;;;;;;;8.60;7.77;;;;;;;0.22;100.00;98047.00;4994818;28;20198;-64
2022/01/07 11:07:39;;;;;;;10.23;7.30;;;;;;;0.19;100.00;98042.84;4994703;28;20289;-64
2022/01/07 11:10:08;;;;;;;10.40;7.20;;;;;;;0.60;100.00;98042.91;4994657;28;20209;-64
2022/01/07 11:12:36;;;;;;;9.43;7.60;;;;;;;0.63;100.00;98040.91;4994483;28;20222;-64
2022/01/07 11:15:08;;;;;;;10.17;8.00;;;;;;;0.73;100.00;98035.94;4994378;28;20233;-64
2022/01/07 11:17:37;;;;;;;12.03;7.57;;;;;;;0.43;100.00;98027.41;4994600;28;20588;-65
2022/01/07 11:20:06;;;;;;;8.77;6.90;;;;;;;0.56;100.00;98031.81;4994338;28;20213;-63
2022/01/07 11:22:38;;;;;;;8.87;7.20;;;;;;;0.67;100.00;98024.13;4994386;28;20292;-64
2022/01/07 11:25:10;;;;;;;9.53;7.03;;;;;;;0.97;100.00;98022.22;4994257;28;20205;-64
2022/01/07 11:27:50;;;;;;;8.07;7.27;;;;;;;0.77;100.00;98020.91;4994068;28;20206;-64
2022/01/07 11:30:19;;;;;;;13.90;8.00;;;;;;;0.84;100.00;98019.56;4994187;28;20209;-64
2022/01/07 11:32:48;;;;;;;8.93;7.80;;;;;;;0.64;100.00;98021.72;4994283;28;20296;-64